M I D A S
Marine Information and Data Acquisition System
Tripno 408 of the Zeeleeuw from 2002-11-29 08:36:27 to 2002-11-29 12:55:31
Back to CruiseResearch ActivitiesStationsMapUnderway DataData graphs

EquipmentUnitsComment
TimeDGPSUTC
LatitudeDGPSDM.mWGS84
LongitudeDGPSDM.mWGS84
TemperatureSBE03/SBE38deg celciusITS90
ConductivitySBE21S/mITS90
SalinitySBE21 Practical Salinity Units
ChlorophylAChelsea fluorimeterg/lCalibrated in Aceton
Missing or incorrect values are displayed as -999
Sea surface data collected by the RV Zeeleeuw from 2002-11-29 08:36:27 to 2002-11-29 12:55:31
Time Latitude Longitude Temperature Conductivity Salinity ChlorophylA
2002-11-29 08:37:31 51°13.605 2°56.069 16.117989 0.069341 0.356045  
2002-11-29 08:38:30 51°13.613 2°56.036 16.134078 0.069341 0.356066  
2002-11-29 08:39:31 51°13.635 2°55.973 16.143105 0.069237 0.355537  
2002-11-29 08:40:31 51°13.67 2°55.895 16.156409 0.069237 0.355552  
2002-11-29 08:41:31 51°13.699 2°55.803 16.156109 0.069237 0.355568  
2002-11-29 08:42:30 51°13.71 2°55.758 16.155682 0.069237 0.355589  
2002-11-29 08:43:30 51°13.715 2°55.766 16.174499 0.069237 0.35561  
2002-11-29 08:44:30 51°13.704 2°55.736 16.178732 0.069237 0.355637  
2002-11-29 08:45:30 51°13.702 2°55.727 16.176594 0.069237 0.355663  
2002-11-29 08:46:30 51°13.726 2°55.722 16.146014 0.069237 0.355684  
2002-11-29 08:47:30 51°13.786 2°55.674 16.184547 0.069237 0.355694  
2002-11-29 08:48:30 51°13.881 2°55.602 16.201689 0.069237 0.355731  
2002-11-29 08:49:30 51°13.992 2°55.528 16.214425 0.069237 0.355752  
2002-11-29 08:50:31 51°14.114 2°55.454 16.217972 0.069237 0.355773  
2002-11-29 08:51:30 51°14.226 2°55.335 16.194037 0.069237 0.355794  
2002-11-29 08:52:30 51°14.328 2°55.136 16.222715 0.069237 0.355815  
2002-11-29 08:53:30 51°14.413 2°54.884 16.209382 0.069237 0.355842  
2002-11-29 08:54:31 51°14.418 2°54.573 16.193567 0.069237 0.355858  
2002-11-29 08:55:30 51°14.375 2°54.281 16.187881 0.069237 0.355873  
2002-11-29 08:56:30 51°14.286 2°54.003 16.178219 0.069237 0.3559  
2002-11-29 08:57:30 51°14.192 2°53.707 16.17933 0.069237 0.355926  
2002-11-29 08:58:30 51°14.095 2°53.401 16.175268 0.069237 0.355952  
2002-11-29 08:59:31 51°13.997 2°53.091 16.179501 0.069237 0.355979  
2002-11-29 09:00:30 51°13.902 2°52.79 16.180656 0.069133 0.355454  
2002-11-29 09:01:31 51°13.8 2°52.482 16.185744 0.069133 0.355481  
2002-11-29 09:02:31 51°13.7 2°52.18 16.186471 0.069133 0.355512  
2002-11-29 09:03:31 51°13.599 2°51.878 16.189378 0.069133 0.355544  
2002-11-29 09:04:30 51°13.5 2°51.581 16.178903 0.069133 0.355575  
2002-11-29 09:05:30 51°13.4 2°51.279 16.191601 0.069133 0.355607  
2002-11-29 09:06:30 51°13.299 2°50.977 16.199466 0.069133 0.355639  
2002-11-29 09:07:30 51°13.198 2°50.677 16.20451 0.069133 0.35567  
2002-11-29 09:08:31 51°13.095 2°50.371 16.194251 0.069133 0.355702  
2002-11-29 09:09:30 51°12.996 2°50.075 16.213912 0.069133 0.355739  
2002-11-29 09:10:30 51°12.895 2°49.773 16.215194 0.069133 0.35576  
2002-11-29 09:11:30 51°12.794 2°49.472 16.230449 0.069133 0.355797  
2002-11-29 09:12:30 51°12.692 2°49.171 16.24083 0.069029 0.355267  
2002-11-29 09:13:30 51°12.591 2°48.869 16.24664 0.069029 0.355293  
2002-11-29 09:14:30 51°12.489 2°48.566 15.845695 0.069029 0.355319  
2002-11-29 09:15:30 51°12.387 2°48.266 15.996041 0.069029 0.355346  
2002-11-29 09:16:30 51°12.287 2°47.963 16.035515 0.069029 0.355372  
2002-11-29 09:17:31 51°12.182 2°47.654 16.062075 0.069029 0.355404  
2002-11-29 09:18:31 51°12.079 2°47.349 16.086484 0.069029 0.355419  
2002-11-29 09:19:30 51°11.983 2°47.045 16.101982 0.069029 0.355441  
2002-11-29 09:20:31 51°11.897 2°46.719 16.119273 0.069029 0.355467  
2002-11-29 09:21:31 51°11.812 2°46.401 16.154698 0.069029 0.355499  
2002-11-29 09:22:31 51°11.726 2°46.082 18.353169 0.001154 0.014127  
2002-11-29 09:23:31 51°11.64 2°45.763 21.308383 0.000842 0.012952  
2002-11-29 09:24:30 51°11.557 2°45.448 20.945659 0.000738 0.012582  
2002-11-29 09:25:30 51°11.471 2°45.13 20.728284 0.000634 0.012232  
2002-11-29 09:26:30 51°11.384 2°44.813 20.646937 0.000634 0.012226  
2002-11-29 09:27:31 51°11.297 2°44.487 20.529841 0.00053 0.011892  
2002-11-29 09:28:30 51°11.212 2°44.171 20.432702 0.00053 0.011886  
2002-11-29 09:29:30 51°11.126 2°43.849 20.355563 0.00053 0.01188  
2002-11-29 09:30:30 51°11.043 2°43.525 20.289342 0.00053 0.011874  
2002-11-29 09:31:30 51°10.963 2°43.198 20.227617 0.00053 0.011869  
2002-11-29 09:32:30 51°10.884 2°42.871 20.172377 0.000426 0.011553  
2002-11-29 09:33:30 51°10.805 2°42.544 20.097135 0.000426 0.011546  
2002-11-29 09:34:30 51°10.726 2°42.216 20.031641 0.000426 0.01154  
2002-11-29 09:35:31 51°10.647 2°41.881 19.996969 0.000426 0.011533  
2002-11-29 09:36:30 51°10.568 2°41.563 19.926319 0.000426 0.011527  
2002-11-29 09:37:31 51°10.491 2°41.231 19.876964 0.000426 0.011522  
2002-11-29 09:38:30 51°10.414 2°40.91 19.814023 0.000426 0.011517  
2002-11-29 09:39:30 51°10.337 2°40.582 19.765563 0.000426 0.011511  
2002-11-29 09:40:31 51°10.258 2°40.248 19.728445 0.000426 0.011505  
2002-11-29 09:41:30 51°10.184 2°39.922 19.67086 0.000426 0.011499  
2002-11-29 09:42:30 51°10.107 2°39.593 19.626573 0.000426 0.011493  
2002-11-29 09:43:30 51°10.021 2°39.268 19.597683 0.000426 0.011486  
2002-11-29 09:44:30 51°9.915 2°38.959 19.575296 0.000426 0.011481  
2002-11-29 09:45:30 51°9.832 2°38.631 19.533474 0.000322 0.011192  
2002-11-29 09:46:30 51°9.75 2°38.303 19.497944 0.000322 0.011185  
2002-11-29 09:47:30 51°9.672 2°37.974 19.463293 0.000322 0.011178  
2002-11-29 09:48:30 51°9.599 2°37.641 19.434459 0.000322 0.011171  
2002-11-29 09:49:30 51°9.525 2°37.31 19.430012 0.000322 0.011165  
2002-11-29 09:50:31 51°9.45 2°36.972 19.377898 0.000322 0.011161  
2002-11-29 09:51:31 51°9.389 2°36.699 19.317123 0.000322 0.011156  
2002-11-29 09:52:30 51°9.338 2°36.585 19.264679 0.000322 0.01115  
2002-11-29 09:53:30 51°9.296 2°36.538 19.26382 0.000322 0.011146  
2002-11-29 09:54:30 51°9.266 2°36.517 19.232449 0.000322 0.011143  
2002-11-29 09:55:31 51°9.244 2°36.501 19.225576 0.000322 0.011134  
2002-11-29 09:56:31 51°9.228 2°36.483 19.209576 0.000322 0.011128  
2002-11-29 09:57:30 51°9.218 2°36.462 19.204501 0.000322 0.01112  
2002-11-29 09:58:31 51°9.212 2°36.438 19.636498 0.000322 0.011116  
2002-11-29 09:59:31 51°9.208 2°36.413 19.553879 0.000322 0.011108  
2002-11-29 10:00:30 51°9.205 2°36.387 19.325131 0.000322 0.011099  
2002-11-29 10:01:30 51°9.204 2°36.359 19.517056 0.000322 0.011089  
2002-11-29 10:02:30 51°9.204 2°36.331 19.355032 0.000322 0.011078  
2002-11-29 10:03:30 51°9.203 2°36.302 19.360953 0.000322 0.011067  
2002-11-29 10:04:31 51°9.204 2°36.273 19.283323 0.000322 0.011056  
2002-11-29 10:05:31 51°9.206 2°36.242 19.27719 0.000322 0.011044  
2002-11-29 10:06:30 51°9.209 2°36.211 19.25785 0.000322 0.011033  
2002-11-29 10:07:30 51°9.213 2°36.18 19.252778 0.000322 0.01102  
2002-11-29 10:08:30 51°9.216 2°36.148 19.422302 0.000322 0.011008  
2002-11-29 10:09:31 51°9.22 2°36.116 19.433806 0.000322 0.010998  
2002-11-29 10:10:30 51°9.223 2°36.086 19.502753 0.000322 0.010989  
2002-11-29 10:11:31 51°9.227 2°36.054 19.236049 0.000322 0.010981  
2002-11-29 10:12:30 51°9.231 2°36.024 19.392512 0.000322 0.010971  
2002-11-29 10:13:31 51°9.236 2°35.993 19.391736 0.000322 0.010963  
2002-11-29 10:14:30 51°9.24 2°35.962 19.495009 0.000322 0.010952  
2002-11-29 10:15:30 51°9.252 2°35.911 19.382511 0.000322 0.010942  
2002-11-29 10:16:30 51°9.294 2°35.876 19.262675 0.000322 0.010936  
2002-11-29 10:17:30 51°9.344 2°35.896 19.338858 0.000322 0.010926  
2002-11-29 10:18:30 51°9.375 2°35.945 19.462151 0.000322 0.010912  
2002-11-29 10:19:30 51°9.391 2°35.994 19.438619 0.000322 0.010904  
2002-11-29 10:20:31 51°9.401 2°36.039 19.472386 0.000322 0.0109  
2002-11-29 10:21:31 51°9.407 2°36.079 19.372876 0.000322 0.010883  
2002-11-29 10:22:30 51°9.412 2°36.116 19.475932 0.000322 0.010879  
2002-11-29 10:23:30 51°9.416 2°36.151 19.442862 0.000322 0.010876  
2002-11-29 10:24:30 51°9.42 2°36.184 19.20622 0.000322 0.010866  
2002-11-29 10:25:31 51°9.421 2°36.217 19.453751 0.000322 0.01086  
2002-11-29 10:26:30 51°9.422 2°36.247 19.395287 0.000322 0.010854  
2002-11-29 10:27:30 51°9.422 2°36.275 19.251265 0.000322 0.010848  
2002-11-29 10:28:30 51°9.422 2°36.303 19.342289 0.000322 0.010847  
2002-11-29 10:29:31 51°9.423 2°36.33 19.351642 0.000322 0.010844  
2002-11-29 10:30:31 51°9.424 2°36.357 19.328686 0.000322 0.010839  
2002-11-29 10:31:30 51°9.426 2°36.383 19.29203 0.000219 0.010588  
2002-11-29 10:32:31 51°9.429 2°36.412 19.29346 0.000219 0.010583  
2002-11-29 10:33:31 51°9.431 2°36.441 19.40953 0.000322 0.01083  
2002-11-29 10:34:31 51°9.433 2°36.469 19.440618 0.000322 0.01083  
2002-11-29 10:35:30 51°9.435 2°36.496 19.377734 0.000219 0.010566  
2002-11-29 10:36:31 51°9.437 2°36.524 19.414753 0.000219 0.010564  
2002-11-29 10:37:31 51°9.438 2°36.55 19.487224 0.000322 0.010809  
2002-11-29 10:38:31 51°9.439 2°36.576 19.591538 0.000219 0.010545  
2002-11-29 10:39:31 51°9.44 2°36.601 19.358135 0.000219 0.010542  
2002-11-29 10:40:31 51°9.441 2°36.628 19.507358 0.000219 0.01053  
2002-11-29 10:41:30 51°9.436 2°36.66 19.256582 0.000219 0.010525  
2002-11-29 10:42:30 51°9.397 2°36.678 19.498718 0.000219 0.01052  
2002-11-29 10:43:30 51°9.366 2°36.637 19.295749 0.000322 0.010766  
2002-11-29 10:44:32 51°9.375 2°36.638 19.58763 0.000219 0.010504  
2002-11-29 10:45:30 51°9.383 2°36.639 19.366221 0.000219 0.010501  
2002-11-29 10:46:31 51°9.393 2°36.637 19.567194 0.000219 0.010489  
2002-11-29 10:47:31 51°9.404 2°36.632 19.505524 0.000219 0.01048  
2002-11-29 10:48:29 51°9.416 2°36.626 19.503935 0.000322 0.010727  
2002-11-29 10:49:30 51°9.428 2°36.616 19.441719 0.000219 0.010461  
2002-11-29 10:50:31 51°9.45 2°36.573 19.476829 0.000219 0.010451  
2002-11-29 10:51:30 51°9.584 2°36.58 19.859774 0.000219 0.010444  
2002-11-29 10:52:31 51°9.561 2°36.85 19.661387 0.000219 0.010426  
2002-11-29 10:53:30 51°9.438 2°37.088 19.634261 0.000322 0.010684  
2002-11-29 10:54:31 51°9.369 2°37.341 19.777458 0.000219 0.010411  
2002-11-29 10:55:31 51°9.385 2°37.464 19.711707 0.000219 0.01039  
2002-11-29 10:56:31 51°9.403 2°37.487 19.645568 0.000219 0.010379  
2002-11-29 10:57:30 51°9.418 2°37.503 19.551313 0.000219 0.010367  
2002-11-29 10:58:31 51°9.429 2°37.522 19.456157 0.000219 0.010364  
2002-11-29 10:59:31 51°9.438 2°37.539 19.662607 0.000322 0.01062  
2002-11-29 11:00:31 51°9.446 2°37.553 19.56638 0.000219 0.010353  
2002-11-29 11:01:31 51°9.451 2°37.566 19.562878 0.000219 0.010345  
2002-11-29 11:02:31 51°9.456 2°37.578 19.605497 0.000219 0.010338  
2002-11-29 11:03:31 51°9.461 2°37.588 19.596259 0.000219 0.010341  
2002-11-29 11:04:28 51°9.465 2°37.596 19.535062 0.000219 0.010336  
2002-11-29 11:05:31 51°9.47 2°37.605 19.351764 0.000219 0.010324  
2002-11-29 11:06:31 51°9.474 2°37.612 19.616931 0.000219 0.010332  
2002-11-29 11:07:31 51°9.479 2°37.619 19.587386 0.000219 0.01032  
2002-11-29 11:08:30 51°9.483 2°37.626 19.649797 0.000219 0.010313  
2002-11-29 11:09:30 51°9.486 2°37.633 19.5206 0.000219 0.010308  
2002-11-29 11:10:31 51°9.491 2°37.64 19.558643 0.000219 0.0103  
2002-11-29 11:11:31 51°9.495 2°37.647 19.765442 0.000219 0.010301  
2002-11-29 11:12:30 51°9.499 2°37.653 19.541539 0.000219 0.010294  
2002-11-29 11:13:31 51°9.503 2°37.659 19.574075 0.000219 0.010278  
2002-11-29 11:14:30 51°9.507 2°37.666 19.551924 0.000219 0.010282  
2002-11-29 11:15:30 51°9.509 2°37.673 19.485268 0.000219 0.010276  
2002-11-29 11:16:31 51°9.512 2°37.679 19.589747 0.000219 0.010281  
2002-11-29 11:17:31 51°9.513 2°37.686 19.483148 0.000219 0.010269  
2002-11-29 11:18:31 51°9.485 2°37.837 19.501449 0.000219 0.010269  
2002-11-29 11:19:31 51°9.529 2°38.067 19.727226 0.000219 0.010257  
2002-11-29 11:20:31 51°9.612 2°38.325 19.617622 0.000219 0.010249  
2002-11-29 11:21:31 51°9.732 2°38.559 19.679438 0.000219 0.010252  
2002-11-29 11:22:31 51°9.838 2°38.811 19.817229 0.000219 0.010237  
2002-11-29 11:23:31 51°9.936 2°39.073 19.67334 0.000219 0.010228  
2002-11-29 11:24:30 51°10.032 2°39.329 19.646381 0.000219 0.010226  
2002-11-29 11:25:31 51°10.119 2°39.602 19.619656 0.000219 0.010225  
2002-11-29 11:26:31 51°10.198 2°39.876 19.619738 0.000219 0.010217  
2002-11-29 11:27:30 51°10.278 2°40.144 19.732547 0.000219 0.010212  
2002-11-29 11:28:31 51°10.357 2°40.421 19.625515 0.000219 0.010208  
2002-11-29 11:29:30 51°10.438 2°40.688 20.034391 0.000219 0.010206  
2002-11-29 11:30:31 51°10.52 2°40.967 19.730923 0.000219 0.010196  
2002-11-29 11:31:31 51°10.6 2°41.242 19.805787 0.000219 0.0102  
2002-11-29 11:32:31 51°10.678 2°41.523 19.576314 0.000219 0.010189  
2002-11-29 11:33:31 51°10.756 2°41.801 19.950822 0.000219 0.010181  
2002-11-29 11:34:31 51°10.834 2°42.079 19.782898 0.000219 0.010177  
2002-11-29 11:35:30 51°10.91 2°42.35 19.680779 0.000219 0.010169  
2002-11-29 11:36:31 51°10.988 2°42.633 20.035322 0.000219 0.010166  
2002-11-29 11:37:31 51°11.065 2°42.908 19.683584 0.000219 0.010158  
2002-11-29 11:38:31 51°11.138 2°43.185 19.697809 0.000219 0.010153  
2002-11-29 11:39:31 51°11.209 2°43.467 19.729785 0.000219 0.010148  
2002-11-29 11:40:31 51°11.279 2°43.748 19.747088 0.000219 0.010137  
2002-11-29 11:41:31 51°11.35 2°44.025 19.732751 0.000219 0.010133  
2002-11-29 11:42:31 51°11.419 2°44.305 19.777296 0.000219 0.010124  
2002-11-29 11:43:31 51°11.487 2°44.585 19.799497 0.000219 0.010119  
2002-11-29 11:44:30 51°11.554 2°44.861 19.724789 0.000219 0.010112  
2002-11-29 11:45:30 51°11.621 2°45.142 19.55168 0.000219 0.010107  
2002-11-29 11:46:31 51°11.691 2°45.428 19.650733 0.000219 0.010099  
2002-11-29 11:47:31 51°11.76 2°45.71 19.730029 0.000219 0.010092  
2002-11-29 11:48:31 51°11.827 2°45.989 19.755331 0.000219 0.010086  
2002-11-29 11:49:31 51°11.895 2°46.268 19.667364 0.000219 0.010081  
2002-11-29 11:50:31 51°11.964 2°46.548 19.661102 0.000219 0.010074  
2002-11-29 11:51:31 51°12.039 2°46.825 19.921539 0.000219 0.010068  
2002-11-29 11:52:29 51°12.114 2°47.09 19.720848 0.000219 0.010064  
2002-11-29 11:53:31 51°12.197 2°47.37 19.78858 0.000219 0.010058  
2002-11-29 11:54:31 51°12.279 2°47.639 19.877531 0.000219 0.010052  
2002-11-29 11:55:31 51°12.36 2°47.91 19.799497 0.000219 0.010044  
2002-11-29 11:56:31 51°12.441 2°48.18 19.962605 0.000219 0.010041  
2002-11-29 11:57:31 51°12.524 2°48.45 19.91291 0.000219 0.010032  
2002-11-29 11:58:31 51°12.606 2°48.721 19.837227 0.000219 0.010024  
2002-11-29 11:59:31 51°12.688 2°48.991 19.756874 0.000219 0.010024  
2002-11-29 12:00:31 51°12.771 2°49.261 19.770192 0.000219 0.010015  
2002-11-29 12:01:31 51°12.853 2°49.529 20.04802 0.000219 0.010012  
2002-11-29 12:02:31 51°12.935 2°49.799 19.809601 0.000219 0.010003  
2002-11-29 12:03:30 51°13.012 2°50.006 19.695899 0.000219 0.009997  
2002-11-29 12:04:30 51°13.085 2°50.005 19.710894 0.000219 0.009995  
2002-11-29 12:05:30 51°13.12 2°49.967 19.760894 0.000219 0.009993  
2002-11-29 12:06:31 51°13.136 2°49.949 19.793288 0.000219 0.009991  
2002-11-29 12:07:31 51°13.139 2°49.941 19.739899 0.000219 0.009975  
2002-11-29 12:08:31 51°13.143 2°49.934 19.936445 0.000219 0.009968  
2002-11-29 12:09:31 51°13.146 2°49.932 19.943938 0.000219 0.00996  
2002-11-29 12:10:31 51°13.149 2°49.927 20.005629 0.000219 0.009957  
2002-11-29 12:11:30 51°13.156 2°49.917 19.813253 0.000219 0.009947  
2002-11-29 12:12:31 51°13.161 2°49.908 19.776849 0.000219 0.009938  
2002-11-29 12:13:31 51°13.164 2°49.903 19.961916 0.000219 0.009934  
2002-11-29 12:14:30 51°13.167 2°49.901 20.087436 0.000219 0.009928  
2002-11-29 12:15:31 51°13.174 2°49.884 19.888961 0.000219 0.009925  
2002-11-29 12:16:30 51°13.161 2°49.812 20.033259 0.000219 0.009924  
2002-11-29 12:17:31 51°13.098 2°49.813 19.804042 0.000219 0.009922  
2002-11-29 12:18:31 51°13.101 2°49.961 19.824531 0.000219 0.009899  
2002-11-29 12:19:31 51°13.176 2°50.164 19.874531 0.000219 0.009891  
2002-11-29 12:20:31 51°13.255 2°50.407 20.083637 0.000219 0.009888  
2002-11-29 12:21:31 51°13.33 2°50.662 19.946813 0.000219 0.009886  
2002-11-29 12:22:31 51°13.408 2°50.914 19.983938 0.000219 0.009883  
2002-11-29 12:23:31 51°13.498 2°51.159 19.890177 0.000219 0.00988  
2002-11-29 12:24:30 51°13.584 2°51.402 19.884543 0.000219 0.009877  
2002-11-29 12:25:31 51°13.675 2°51.652 19.905333 0.000219 0.009875  
2002-11-29 12:26:30 51°13.764 2°51.893 19.732547 0.000219 0.009871  
2002-11-29 12:27:31 51°13.856 2°52.143 19.792233 0.000219 0.009866  
2002-11-29 12:28:31 51°13.944 2°52.388 19.87145 0.000219 0.009867  
2002-11-29 12:29:31 51°14.026 2°52.639 19.851867 0.000322 0.010143  
2002-11-29 12:30:28 51°14.11 2°52.869 20.078786 0.000322 0.010141  
2002-11-29 12:31:31 51°14.211 2°53.114 19.789513 0.000219 0.009852  
2002-11-29 12:32:31 51°14.292 2°53.364 19.81163 0.000219 0.009849  
2002-11-29 12:33:31 51°14.374 2°53.643 19.852354 0.000219 0.009845  
2002-11-29 12:34:31 51°14.429 2°53.94 20.00486 0.000219 0.009839  
2002-11-29 12:35:31 51°14.458 2°54.23 19.948959 0.000219 0.009835  
2002-11-29 12:36:31 51°14.469 2°54.519 19.843757 0.000219 0.009826  
2002-11-29 12:37:31 51°14.445 2°54.805 19.869991 0.000219 0.009819  
2002-11-29 12:38:31 51°14.367 2°55.067 19.880936 0.000219 0.009812  
2002-11-29 12:39:31 51°14.269 2°55.248 19.874937 0.000219 0.009807  
2002-11-29 12:40:31 51°14.19 2°55.348 19.693014 0.000219 0.009798  
2002-11-29 12:41:31 51°14.118 2°55.419 19.900471 0.000219 0.00979  
2002-11-29 12:42:30 51°14.043 2°55.476 29.117422 0.000219 0.00978  
2002-11-29 12:43:31 51°13.962 2°55.538 28.294764 0.000219 0.009773  
2002-11-29 12:44:31 51°13.883 2°55.597 28.000711 0.000219 0.009763  
2002-11-29 12:45:31 51°13.805 2°55.657 28.197754 0.000219 0.009757  
2002-11-29 12:46:31 51°13.742 2°55.739 28.735177 0.000219 0.009749  
2002-11-29 12:47:31 51°13.698 2°55.823 29.520075 0.000219 0.009741  
2002-11-29 12:48:31 51°13.662 2°55.899 29.459222 0.000219 0.009733  
2002-11-29 12:49:31 51°13.633 2°55.964 28.996623 0.000219 0.009726  
2002-11-29 12:50:31 51°13.61 2°56.024 28.808376 0.000219 0.009719  
2002-11-29 12:51:31 51°13.599 2°56.079 28.010675 0.000219 0.009713  
2002-11-29 12:52:31 51°13.595 2°56.116 29.321492 0.000219 0.009707  
2002-11-29 12:53:31 51°13.591 2°56.127 28.581409 0.000219 0.009702  
2002-11-29 12:54:31 51°13.59 2°56.132 28.729041 0.000219 0.009697